sensor_id;sensor_type;location;lat;lon;timestamp;temperature;humidity
1259;DHT22;619;51.472;6.628;2023-04-03T13:38:25;16.00;51.20
1259;DHT22;619;51.472;6.628;2023-04-03T13:40:57;17.20;39.90
1259;DHT22;619;51.472;6.628;2023-04-03T13:43:29;17.30;39.90
1259;DHT22;619;51.472;6.628;2023-04-03T13:46:04;17.30;39.80
1259;DHT22;619;51.472;6.628;2023-04-03T13:48:50;17.40;39.40
1259;DHT22;619;51.472;6.628;2023-04-03T13:51:20;17.30;39.00
1259;DHT22;619;51.472;6.628;2023-04-03T13:54:12;17.10;39.30
1259;DHT22;619;51.472;6.628;2023-04-03T13:56:43;17.20;39.80
1259;DHT22;619;51.472;6.628;2023-04-03T14:01:42;17.20;40.20
1259;DHT22;619;51.472;6.628;2023-04-03T14:04:59;17.30;40.20
1259;DHT22;619;51.472;6.628;2023-04-03T14:07:01;17.30;39.70
1259;DHT22;619;51.472;6.628;2023-04-03T14:09:27;17.40;40.00
1259;DHT22;619;51.472;6.628;2023-04-03T14:12:00;17.40;39.20
1259;DHT22;619;51.472;6.628;2023-04-03T14:14:34;17.40;39.40
1259;DHT22;619;51.472;6.628;2023-04-03T14:17:03;17.40;39.10
1259;DHT22;619;51.472;6.628;2023-04-03T14:19:31;17.30;39.30
1259;DHT22;619;51.472;6.628;2023-04-03T14:22:00;17.30;39.90
1259;DHT22;619;51.472;6.628;2023-04-03T14:24:30;17.10;39.90
1259;DHT22;619;51.472;6.628;2023-04-03T14:26:59;17.00;40.00
1259;DHT22;619;51.472;6.628;2023-04-03T14:29:28;16.90;39.70
1259;DHT22;619;51.472;6.628;2023-04-03T14:31:53;16.60;39.60
1259;DHT22;619;51.472;6.628;2023-04-03T14:34:19;16.60;40.10
1259;DHT22;619;51.472;6.628;2023-04-03T14:36:49;16.50;40.00
1259;DHT22;619;51.472;6.628;2023-04-03T14:44:10;16.50;40.10
1259;DHT22;619;51.472;6.628;2023-04-03T14:46:38;16.70;40.90
1259;DHT22;619;51.472;6.628;2023-04-03T14:49:14;16.70;41.20
1259;DHT22;619;51.472;6.628;2023-04-03T14:51:39;16.60;39.70
1259;DHT22;619;51.472;6.628;2023-04-03T14:54:15;16.60;40.20
1259;DHT22;619;51.472;6.628;2023-04-03T14:56:44;16.70;39.90
1259;DHT22;619;51.472;6.628;2023-04-03T14:59:11;16.70;40.30
1259;DHT22;619;51.472;6.628;2023-04-03T15:01:38;16.80;40.80
1259;DHT22;619;51.472;6.628;2023-04-03T15:04:19;16.60;40.70
1259;DHT22;619;51.472;6.628;2023-04-03T15:06:45;16.70;41.20
1259;DHT22;619;51.472;6.628;2023-04-03T15:11:51;16.90;40.80
1259;DHT22;619;51.472;6.628;2023-04-03T15:14:17;17.00;40.40
1259;DHT22;619;51.472;6.628;2023-04-03T15:16:44;17.00;40.10
1259;DHT22;619;51.472;6.628;2023-04-03T15:19:12;16.90;40.00
1259;DHT22;619;51.472;6.628;2023-04-03T15:21:38;16.90;40.80
1259;DHT22;619;51.472;6.628;2023-04-03T15:24:06;16.90;40.10
1259;DHT22;619;51.472;6.628;2023-04-03T15:26:32;16.90;39.60
1259;DHT22;619;51.472;6.628;2023-04-03T15:29:00;16.70;39.20
1259;DHT22;619;51.472;6.628;2023-04-03T15:31:27;16.60;39.50
1259;DHT22;619;51.472;6.628;2023-04-03T15:33:52;16.40;40.20
1259;DHT22;619;51.472;6.628;2023-04-03T15:36:18;16.40;40.50
1259;DHT22;619;51.472;6.628;2023-04-03T15:46:07;16.20;40.00
1259;DHT22;619;51.472;6.628;2023-04-03T15:58:20;16.40;41.10
1259;DHT22;619;51.472;6.628;2023-04-03T16:00:45;16.60;41.30
1259;DHT22;619;51.472;6.628;2023-04-03T16:10:38;16.60;40.90
1259;DHT22;619;51.472;6.628;2023-04-03T16:13:05;16.40;40.50
1259;DHT22;619;51.472;6.628;2023-04-03T16:40:10;16.40;40.30
1259;DHT22;619;51.472;6.628;2023-04-03T16:42:41;15.90;42.70
1259;DHT22;619;51.472;6.628;2023-04-03T16:45:10;16.30;42.00
1259;DHT22;619;51.472;6.628;2023-04-03T16:47:36;16.80;41.60
1259;DHT22;619;51.472;6.628;2023-04-03T16:50:04;17.30;40.80
1259;DHT22;619;51.472;6.628;2023-04-03T16:52:30;17.90;40.40
1259;DHT22;619;51.472;6.628;2023-04-03T16:54:57;18.00;39.10
1259;DHT22;619;51.472;6.628;2023-04-03T16:57:26;18.40;39.30
1259;DHT22;619;51.472;6.628;2023-04-03T16:59:54;18.70;37.80
1259;DHT22;619;51.472;6.628;2023-04-03T17:02:25;18.80;38.00
1259;DHT22;619;51.472;6.628;2023-04-03T17:04:52;19.00;37.40
1259;DHT22;619;51.472;6.628;2023-04-03T17:07:19;19.00;37.40
1259;DHT22;619;51.472;6.628;2023-04-03T17:09:45;18.80;37.50
1259;DHT22;619;51.472;6.628;2023-04-03T17:12:13;18.70;37.70
1259;DHT22;619;51.472;6.628;2023-04-03T17:14:39;18.70;38.10
1259;DHT22;619;51.472;6.628;2023-04-03T17:17:05;18.60;38.10
1259;DHT22;619;51.472;6.628;2023-04-03T17:19:31;18.40;38.40
1259;DHT22;619;51.472;6.628;2023-04-03T17:21:58;18.20;38.70
1259;DHT22;619;51.472;6.628;2023-04-03T17:24:24;17.70;38.80
1259;DHT22;619;51.472;6.628;2023-04-03T17:26:52;17.30;39.10
